PWSweather.com
Personal Weather Stations
Station Observations
K4FB1
Clubhouse Heritage, Lakeland, FL 33812

Clubhouse HeritageLakeland, FL 33812

Lat: 27.969224, Lon: -81.897769

Elevation: 145

Station Type: Davis Vantage Pro2

http://www.ClubhouseWX.com

High Low Average
Temperature 92.4°F33.6°C 71.2°F21.8°C 78.8°F26.0°C
Dew Point 72.4°F22.4°C -33.8°F-36.6°C 18.9°F-7.3°C
Winds 8.0 mph 12.9 kmh Calm Calm 3.0 mph SE4.8 kmh SE
Wind Gusts 18.0 mph29.0 kmh -- 7.0 mph11.3 kmh
Humidity 69% 0% 29%
Pressure 30.17 in1021.7 mb 30.02 in1016.6 mb -
Precipitation 0.01 in0.3 mm - -
Hour Temp Dew Point Humidity Winds Wind Gusts Pressure Precip Precip Rate Daily Precip Total
12:00 AM 73.9°F23.3°C -6.1°F-21.2°C 4% 1.0 mph ESE1.6 kmh ESE 4.0 mph6.4 kmh 30.15 in1021.0 mb 0.01 in0.3 mm 0.00 in0.0 mm 0.07 in1.8 mm
12:05 AM 73.7°F23.2°C -6.2°F-21.2°C 4% Calm Calm 2.0 mph3.2 kmh 30.15 in1021.0 mb 0.01 in0.3 mm 0.00 in0.0 mm 0.07 in1.8 mm
12:10 AM 73.6°F23.1°C -33.0°F-36.1°C 0% 1.0 mph E1.6 kmh E 2.0 mph3.2 kmh 30.15 in1021.0 mb 0.01 in0.3 mm 0.00 in0.0 mm 0.07 in1.8 mm
12:15 AM 73.5°F23.1°C -33.0°F-36.1°C 0% 1.0 mph E1.6 kmh E 2.0 mph3.2 kmh 30.15 in1021.0 mb 0.01 in0.3 mm 0.00 in0.0 mm 0.07 in1.8 mm
12:20 AM 73.4°F23.0°C -33.0°F-36.1°C 0% 1.0 mph E1.6 kmh E 3.0 mph4.8 kmh 30.15 in1021.0 mb 0.01 in0.3 mm 0.00 in0.0 mm 0.07 in1.8 mm
12:25 AM 73.4°F23.0°C -33.0°F-36.1°C 0% 1.0 mph E1.6 kmh E 3.0 mph4.8 kmh 30.15 in1021.0 mb 0.01 in0.3 mm 0.00 in0.0 mm 0.07 in1.8 mm
12:30 AM 73.3°F22.9°C -33.0°F-36.1°C 0% Calm Calm 2.0 mph3.2 kmh 30.15 in1021.0 mb 0.01 in0.3 mm 0.00 in0.0 mm 0.07 in1.8 mm
12:35 AM 73.3°F22.9°C -33.0°F-36.1°C 0% 1.0 mph E1.6 kmh E 5.0 mph8.0 kmh 30.15 in1021.0 mb 0.00 in0.0 mm 0.00 in0.0 mm 0.07 in1.8 mm
12:40 AM 73.3°F22.9°C -33.0°F-36.1°C 0% 1.0 mph E1.6 kmh E 5.0 mph8.0 kmh 30.15 in1021.0 mb 0.00 in0.0 mm 0.00 in0.0 mm 0.07 in1.8 mm
12:45 AM 73.4°F23.0°C -33.0°F-36.1°C 0% 1.0 mph E1.6 kmh E 5.0 mph8.0 kmh 30.15 in1021.0 mb 0.00 in0.0 mm 0.00 in0.0 mm 0.07 in1.8 mm
12:50 AM 73.4°F23.0°C -33.0°F-36.1°C 0% 2.0 mph E3.2 kmh E 5.0 mph8.0 kmh 30.15 in1021.0 mb 0.00 in0.0 mm 0.00 in0.0 mm 0.07 in1.8 mm
12:55 AM 73.5°F23.1°C -33.0°F-36.1°C 0% 2.0 mph E3.2 kmh E 4.0 mph6.4 kmh 30.14 in1020.7 mb 0.00 in0.0 mm 0.00 in0.0 mm 0.07 in1.8 mm
01:00 AM 73.6°F23.1°C -33.0°F-36.1°C 0% 2.0 mph ESE3.2 kmh ESE 5.0 mph8.0 kmh 30.14 in1020.7 mb 0.00 in0.0 mm 0.00 in0.0 mm 0.01 in0.3 mm
01:05 AM 73.6°F23.1°C -33.0°F-36.1°C 0% 2.0 mph SE3.2 kmh SE 5.0 mph8.0 kmh 30.14 in1020.7 mb 0.00 in0.0 mm 0.00 in0.0 mm 0.01 in0.3 mm
01:10 AM 73.7°F23.2°C -33.0°F-36.1°C 0% 2.0 mph SE3.2 kmh SE 5.0 mph8.0 kmh 30.14 in1020.7 mb 0.00 in0.0 mm 0.00 in0.0 mm 0.01 in0.3 mm
01:15 AM 73.6°F23.1°C -33.0°F-36.1°C 0% 1.0 mph SE1.6 kmh SE 3.0 mph4.8 kmh 30.14 in1020.7 mb 0.00 in0.0 mm 0.00 in0.0 mm 0.01 in0.3 mm
01:20 AM 73.6°F23.1°C -33.0°F-36.1°C 0% 1.0 mph SE1.6 kmh SE 2.0 mph3.2 kmh 30.14 in1020.7 mb 0.00 in0.0 mm 0.00 in0.0 mm 0.01 in0.3 mm
01:25 AM 73.6°F23.1°C -33.0°F-36.1°C 0% Calm Calm 1.0 mph1.6 kmh 30.13 in1020.3 mb 0.00 in0.0 mm 0.00 in0.0 mm 0.01 in0.3 mm
01:30 AM 73.6°F23.1°C -33.0°F-36.1°C 0% Calm Calm 2.0 mph3.2 kmh 30.13 in1020.3 mb 0.00 in0.0 mm 0.00 in0.0 mm 0.01 in0.3 mm
01:35 AM 73.6°F23.1°C -33.0°F-36.1°C 0% 1.0 mph SE1.6 kmh SE 2.0 mph3.2 kmh 30.13 in1020.3 mb 0.00 in0.0 mm 0.00 in0.0 mm 0.01 in0.3 mm
01:40 AM 73.5°F23.1°C -33.0°F-36.1°C 0% 1.0 mph SE1.6 kmh SE 3.0 mph4.8 kmh 30.13 in1020.3 mb 0.00 in0.0 mm 0.00 in0.0 mm 0.01 in0.3 mm
01:45 AM 73.5°F23.1°C -33.0°F-36.1°C 0% 1.0 mph SE1.6 kmh SE 3.0 mph4.8 kmh 30.13 in1020.3 mb 0.00 in0.0 mm 0.00 in0.0 mm 0.01 in0.3 mm
01:50 AM 73.4°F23.0°C -33.0°F-36.1°C 0% 1.0 mph SE1.6 kmh SE 3.0 mph4.8 kmh 30.13 in1020.3 mb 0.00 in0.0 mm 0.00 in0.0 mm 0.01 in0.3 mm
01:55 AM 73.3°F22.9°C -33.0°F-36.1°C 0% 1.0 mph SE1.6 kmh SE 3.0 mph4.8 kmh 30.13 in1020.3 mb 0.00 in0.0 mm 0.00 in0.0 mm 0.01 in0.3 mm
02:00 AM 73.3°F22.9°C -33.0°F-36.1°C 0% 1.0 mph SE1.6 kmh SE 2.0 mph3.2 kmh 30.13 in1020.3 mb 0.00 in0.0 mm 0.00 in0.0 mm 0.01 in0.3 mm
02:05 AM 73.1°F22.8°C -33.0°F-36.1°C 0% 1.0 mph SE1.6 kmh SE 2.0 mph3.2 kmh 30.13 in1020.3 mb 0.00 in0.0 mm 0.00 in0.0 mm 0.01 in0.3 mm
02:10 AM 73.0°F22.8°C -33.0°F-36.1°C 0% 1.0 mph SE1.6 kmh SE 3.0 mph4.8 kmh 30.13 in1020.3 mb 0.00 in0.0 mm 0.00 in0.0 mm 0.01 in0.3 mm
02:15 AM 73.0°F22.8°C -33.0°F-36.1°C 0% 1.0 mph SE1.6 kmh SE 3.0 mph4.8 kmh 30.13 in1020.3 mb 0.00 in0.0 mm 0.00 in0.0 mm 0.01 in0.3 mm
02:20 AM 72.9°F22.7°C -33.0°F-36.1°C 0% 1.0 mph SE1.6 kmh SE 3.0 mph4.8 kmh 30.13 in1020.3 mb 0.00 in0.0 mm 0.00 in0.0 mm 0.01 in0.3 mm
02:25 AM 72.8°F22.7°C -33.0°F-36.1°C 0% 1.0 mph SE1.6 kmh SE 2.0 mph3.2 kmh 30.13 in1020.3 mb 0.00 in0.0 mm 0.00 in0.0 mm 0.01 in0.3 mm
02:30 AM 72.7°F22.6°C -33.0°F-36.1°C 0% 1.0 mph SE1.6 kmh SE 3.0 mph4.8 kmh 30.13 in1020.3 mb 0.00 in0.0 mm 0.00 in0.0 mm 0.01 in0.3 mm
02:35 AM 72.7°F22.6°C -33.0°F-36.1°C 0% 2.0 mph SE3.2 kmh SE 3.0 mph4.8 kmh 30.13 in1020.3 mb 0.00 in0.0 mm 0.00 in0.0 mm 0.01 in0.3 mm
02:40 AM 72.7°F22.6°C -33.0°F-36.1°C 0% 2.0 mph SE3.2 kmh SE 4.0 mph6.4 kmh 30.12 in1020.0 mb 0.00 in0.0 mm 0.00 in0.0 mm 0.01 in0.3 mm
02:45 AM 72.6°F22.6°C -33.0°F-36.1°C 0% 2.0 mph SE3.2 kmh SE 4.0 mph6.4 kmh 30.12 in1020.0 mb 0.00 in0.0 mm 0.00 in0.0 mm 0.01 in0.3 mm
02:50 AM 72.6°F22.6°C -33.0°F-36.1°C 0% 2.0 mph SE3.2 kmh SE 4.0 mph6.4 kmh 30.12 in1020.0 mb 0.00 in0.0 mm 0.00 in0.0 mm 0.01 in0.3 mm
02:55 AM 72.5°F22.5°C -33.0°F-36.1°C 0% 2.0 mph SE3.2 kmh SE 4.0 mph6.4 kmh 30.12 in1020.0 mb 0.00 in0.0 mm 0.00 in0.0 mm 0.01 in0.3 mm
03:00 AM 72.5°F22.5°C -33.0°F-36.1°C 0% 2.0 mph SE3.2 kmh SE 4.0 mph6.4 kmh 30.12 in1020.0 mb 0.00 in0.0 mm 0.00 in0.0 mm 0.01 in0.3 mm
03:05 AM 72.3°F22.4°C -33.0°F-36.1°C 0% 1.0 mph SE1.6 kmh SE 4.0 mph6.4 kmh 30.12 in1020.0 mb 0.00 in0.0 mm 0.00 in0.0 mm 0.01 in0.3 mm
03:10 AM 72.2°F22.3°C -33.0°F-36.1°C 0% 1.0 mph SE1.6 kmh SE 3.0 mph4.8 kmh 30.12 in1020.0 mb 0.00 in0.0 mm 0.00 in0.0 mm 0.01 in0.3 mm
03:15 AM 72.2°F22.3°C -33.0°F-36.1°C 0% 1.0 mph SE1.6 kmh SE 3.0 mph4.8 kmh 30.12 in1020.0 mb 0.00 in0.0 mm 0.00 in0.0 mm 0.01 in0.3 mm
03:20 AM 72.2°F22.3°C -33.0°F-36.1°C 0% 1.0 mph SE1.6 kmh SE 3.0 mph4.8 kmh 30.12 in1020.0 mb 0.00 in0.0 mm 0.00 in0.0 mm 0.01 in0.3 mm
03:25 AM 72.2°F22.3°C -33.0°F-36.1°C 0% 1.0 mph SE1.6 kmh SE 3.0 mph4.8 kmh 30.12 in1020.0 mb 0.00 in0.0 mm 0.00 in0.0 mm 0.01 in0.3 mm
03:30 AM 72.1°F22.3°C -33.0°F-36.1°C 0% 1.0 mph SE1.6 kmh SE 3.0 mph4.8 kmh 30.12 in1020.0 mb 0.00 in0.0 mm 0.00 in0.0 mm 0.01 in0.3 mm
03:35 AM 72.0°F22.2°C -33.0°F-36.1°C 0% 1.0 mph SE1.6 kmh SE 3.0 mph4.8 kmh 30.12 in1020.0 mb 0.00 in0.0 mm 0.00 in0.0 mm 0.01 in0.3 mm
03:40 AM 71.9°F22.2°C -33.0°F-36.1°C 0% 1.0 mph SE1.6 kmh SE 3.0 mph4.8 kmh 30.12 in1020.0 mb 0.00 in0.0 mm 0.00 in0.0 mm 0.01 in0.3 mm
03:45 AM 71.9°F22.2°C -33.0°F-36.1°C 0% 1.0 mph SE1.6 kmh SE 3.0 mph4.8 kmh 30.12 in1020.0 mb 0.00 in0.0 mm 0.00 in0.0 mm 0.01 in0.3 mm
03:50 AM 71.9°F22.2°C -33.0°F-36.1°C 0% 1.0 mph SE1.6 kmh SE 4.0 mph6.4 kmh 30.12 in1020.0 mb 0.00 in0.0 mm 0.00 in0.0 mm 0.01 in0.3 mm
03:55 AM 72.0°F22.2°C -33.0°F-36.1°C 0% 2.0 mph SE3.2 kmh SE 4.0 mph6.4 kmh 30.12 in1020.0 mb 0.00 in0.0 mm 0.00 in0.0 mm 0.01 in0.3 mm
04:00 AM 72.0°F22.2°C -33.0°F-36.1°C 0% 2.0 mph SE3.2 kmh SE 4.0 mph6.4 kmh 30.12 in1020.0 mb 0.00 in0.0 mm 0.00 in0.0 mm 0.01 in0.3 mm
04:05 AM 72.0°F22.2°C -33.0°F-36.1°C 0% 2.0 mph SE3.2 kmh SE 4.0 mph6.4 kmh 30.12 in1020.0 mb 0.00 in0.0 mm 0.00 in0.0 mm 0.01 in0.3 mm
04:10 AM 71.9°F22.2°C -33.0°F-36.1°C 0% 2.0 mph SE3.2 kmh SE 4.0 mph6.4 kmh 30.11 in1019.6 mb 0.00 in0.0 mm 0.00 in0.0 mm 0.01 in0.3 mm
04:15 AM 71.8°F22.1°C -33.0°F-36.1°C 0% 2.0 mph SE3.2 kmh SE 4.0 mph6.4 kmh 30.11 in1019.6 mb 0.00 in0.0 mm 0.00 in0.0 mm 0.01 in0.3 mm
04:20 AM 71.7°F22.1°C -33.0°F-36.1°C 0% 2.0 mph SE3.2 kmh SE 4.0 mph6.4 kmh 30.11 in1019.6 mb 0.00 in0.0 mm 0.00 in0.0 mm 0.01 in0.3 mm
04:25 AM 71.6°F22.0°C -33.0°F-36.1°C 0% 2.0 mph SE3.2 kmh SE 4.0 mph6.4 kmh 30.11 in1019.6 mb 0.00 in0.0 mm 0.00 in0.0 mm 0.01 in0.3 mm
04:30 AM 71.6°F22.0°C -33.0°F-36.1°C 0% 2.0 mph SE3.2 kmh SE 4.0 mph6.4 kmh 30.11 in1019.6 mb 0.00 in0.0 mm 0.00 in0.0 mm 0.01 in0.3 mm
04:35 AM 71.6°F22.0°C -33.0°F-36.1°C 0% 2.0 mph SE3.2 kmh SE 6.0 mph9.7 kmh 30.11 in1019.6 mb 0.00 in0.0 mm 0.00 in0.0 mm 0.01 in0.3 mm
04:40 AM 71.5°F21.9°C -33.0°F-36.1°C 0% 3.0 mph SE4.8 kmh SE 6.0 mph9.7 kmh 30.11 in1019.6 mb 0.00 in0.0 mm 0.00 in0.0 mm 0.01 in0.3 mm
04:45 AM 71.4°F21.9°C -33.0°F-36.1°C 0% 2.0 mph SE3.2 kmh SE 5.0 mph8.0 kmh 30.11 in1019.6 mb 0.00 in0.0 mm 0.00 in0.0 mm 0.01 in0.3 mm
04:50 AM 71.4°F21.9°C -33.0°F-36.1°C 0% 2.0 mph SE3.2 kmh SE 4.0 mph6.4 kmh 30.11 in1019.6 mb 0.00 in0.0 mm 0.00 in0.0 mm 0.01 in0.3 mm
04:55 AM 71.3°F21.8°C -33.0°F-36.1°C 0% 2.0 mph SE3.2 kmh SE 4.0 mph6.4 kmh 30.11 in1019.6 mb 0.00 in0.0 mm 0.00 in0.0 mm 0.01 in0.3 mm
05:00 AM 71.3°F21.8°C -33.0°F-36.1°C 0% 2.0 mph SE3.2 kmh SE 4.0 mph6.4 kmh 30.11 in1019.6 mb 0.00 in0.0 mm 0.00 in0.0 mm 0.01 in0.3 mm
05:05 AM 71.2°F21.8°C -33.0°F-36.1°C 0% 2.0 mph SE3.2 kmh SE 4.0 mph6.4 kmh 30.11 in1019.6 mb 0.00 in0.0 mm 0.00 in0.0 mm 0.01 in0.3 mm
05:10 AM 71.2°F21.8°C -33.0°F-36.1°C 0% 2.0 mph SE3.2 kmh SE 4.0 mph6.4 kmh 30.11 in1019.6 mb 0.00 in0.0 mm 0.00 in0.0 mm 0.01 in0.3 mm
05:15 AM 71.3°F21.8°C -33.0°F-36.1°C 0% 2.0 mph SE3.2 kmh SE 4.0 mph6.4 kmh 30.11 in1019.6 mb 0.00 in0.0 mm 0.00 in0.0 mm 0.01 in0.3 mm
05:20 AM 71.3°F21.8°C -33.0°F-36.1°C 0% 2.0 mph SE3.2 kmh SE 4.0 mph6.4 kmh 30.11 in1019.6 mb 0.00 in0.0 mm 0.00 in0.0 mm 0.01 in0.3 mm
05:25 AM 71.3°F21.8°C -33.0°F-36.1°C 0% 2.0 mph SE3.2 kmh SE 4.0 mph6.4 kmh 30.12 in1020.0 mb 0.00 in0.0 mm 0.00 in0.0 mm 0.01 in0.3 mm
05:30 AM 71.4°F21.9°C -33.0°F-36.1°C 0% 2.0 mph SE3.2 kmh SE 4.0 mph6.4 kmh 30.12 in1020.0 mb 0.00 in0.0 mm 0.00 in0.0 mm 0.01 in0.3 mm
05:35 AM 71.4°F21.9°C -33.0°F-36.1°C 0% 2.0 mph SE3.2 kmh SE 4.0 mph6.4 kmh 30.12 in1020.0 mb 0.00 in0.0 mm 0.00 in0.0 mm 0.01 in0.3 mm
05:40 AM 71.5°F21.9°C -33.0°F-36.1°C 0% 2.0 mph SE3.2 kmh SE 4.0 mph6.4 kmh 30.11 in1019.6 mb 0.00 in0.0 mm 0.00 in0.0 mm 0.01 in0.3 mm
05:45 AM 71.6°F22.0°C -33.0°F-36.1°C 0% 2.0 mph SE3.2 kmh SE 4.0 mph6.4 kmh 30.12 in1020.0 mb 0.00 in0.0 mm 0.00 in0.0 mm 0.01 in0.3 mm
05:50 AM 71.6°F22.0°C -33.0°F-36.1°C 0% 2.0 mph SE3.2 kmh SE 4.0 mph6.4 kmh 30.12 in1020.0 mb 0.00 in0.0 mm 0.00 in0.0 mm 0.01 in0.3 mm
05:55 AM 71.7°F22.1°C -33.0°F-36.1°C 0% 3.0 mph SE4.8 kmh SE 5.0 mph8.0 kmh 30.12 in1020.0 mb 0.00 in0.0 mm 0.00 in0.0 mm 0.01 in0.3 mm
06:00 AM 71.9°F22.2°C -33.0°F-36.1°C 0% 3.0 mph SE4.8 kmh SE 5.0 mph8.0 kmh 30.12 in1020.0 mb 0.00 in0.0 mm 0.00 in0.0 mm 0.01 in0.3 mm
06:05 AM 71.9°F22.2°C -33.0°F-36.1°C 0% 4.0 mph SE6.4 kmh SE 8.0 mph12.9 kmh 30.12 in1020.0 mb 0.00 in0.0 mm 0.00 in0.0 mm 0.01 in0.3 mm
06:10 AM 72.0°F22.2°C -33.0°F-36.1°C 0% 4.0 mph SE6.4 kmh SE 8.0 mph12.9 kmh 30.12 in1020.0 mb 0.00 in0.0 mm 0.00 in0.0 mm 0.01 in0.3 mm
06:15 AM 72.1°F22.3°C -33.0°F-36.1°C 0% 4.0 mph SE6.4 kmh SE 7.0 mph11.3 kmh 30.12 in1020.0 mb 0.00 in0.0 mm 0.00 in0.0 mm 0.01 in0.3 mm
06:20 AM 72.2°F22.3°C -33.0°F-36.1°C 0% 4.0 mph SE6.4 kmh SE 7.0 mph11.3 kmh 30.12 in1020.0 mb 0.00 in0.0 mm 0.00 in0.0 mm 0.01 in0.3 mm
06:25 AM 72.2°F22.3°C -33.0°F-36.1°C 0% 4.0 mph SE6.4 kmh SE 8.0 mph12.9 kmh 30.12 in1020.0 mb 0.00 in0.0 mm 0.00 in0.0 mm 0.01 in0.3 mm
06:30 AM 72.2°F22.3°C -33.0°F-36.1°C 0% 4.0 mph SE6.4 kmh SE 8.0 mph12.9 kmh 30.12 in1020.0 mb 0.00 in0.0 mm 0.00 in0.0 mm 0.01 in0.3 mm
06:35 AM 72.2°F22.3°C -33.0°F-36.1°C 0% 3.0 mph SSE4.8 kmh SSE 8.0 mph12.9 kmh 30.12 in1020.0 mb 0.00 in0.0 mm 0.00 in0.0 mm 0.01 in0.3 mm
06:40 AM 72.2°F22.3°C -33.0°F-36.1°C 0% 4.0 mph SSE6.4 kmh SSE 7.0 mph11.3 kmh 30.13 in1020.3 mb 0.00 in0.0 mm 0.00 in0.0 mm 0.01 in0.3 mm
06:45 AM 72.2°F22.3°C -33.0°F-36.1°C 0% 4.0 mph SSE6.4 kmh SSE 8.0 mph12.9 kmh 30.13 in1020.3 mb 0.00 in0.0 mm 0.00 in0.0 mm 0.01 in0.3 mm
06:50 AM 72.2°F22.3°C -33.0°F-36.1°C 0% 4.0 mph SSE6.4 kmh SSE 9.0 mph14.5 kmh 30.13 in1020.3 mb 0.00 in0.0 mm 0.00 in0.0 mm 0.01 in0.3 mm
06:55 AM 72.2°F22.3°C -33.0°F-36.1°C 0% 4.0 mph SE6.4 kmh SE 9.0 mph14.5 kmh 30.13 in1020.3 mb 0.00 in0.0 mm 0.00 in0.0 mm 0.01 in0.3 mm
07:00 AM 72.2°F22.3°C -33.0°F-36.1°C 0% 4.0 mph SSE6.4 kmh SSE 7.0 mph11.3 kmh 30.13 in1020.3 mb 0.00 in0.0 mm 0.00 in0.0 mm 0.01 in0.3 mm
07:05 AM 72.3°F22.4°C -33.0°F-36.1°C 0% 3.0 mph SE4.8 kmh SE 7.0 mph11.3 kmh 30.13 in1020.3 mb 0.00 in0.0 mm 0.00 in0.0 mm 0.01 in0.3 mm
07:10 AM 72.3°F22.4°C -33.0°F-36.1°C 0% 4.0 mph SE6.4 kmh SE 8.0 mph12.9 kmh 30.13 in1020.3 mb 0.00 in0.0 mm 0.00 in0.0 mm 0.01 in0.3 mm
07:15 AM 72.4°F22.4°C -33.0°F-36.1°C 0% 4.0 mph SE6.4 kmh SE 8.0 mph12.9 kmh 30.13 in1020.3 mb 0.00 in0.0 mm 0.00 in0.0 mm 0.01 in0.3 mm
07:20 AM 72.4°F22.4°C -33.0°F-36.1°C 0% 3.0 mph SE4.8 kmh SE 7.0 mph11.3 kmh 30.13 in1020.3 mb 0.00 in0.0 mm 0.00 in0.0 mm 0.01 in0.3 mm
07:25 AM 72.4°F22.4°C -33.0°F-36.1°C 0% 4.0 mph SE6.4 kmh SE 8.0 mph12.9 kmh 30.13 in1020.3 mb 0.00 in0.0 mm 0.00 in0.0 mm 0.01 in0.3 mm
07:30 AM 72.5°F22.5°C -33.0°F-36.1°C 0% 3.0 mph SE4.8 kmh SE 8.0 mph12.9 kmh 30.13 in1020.3 mb 0.00 in0.0 mm 0.00 in0.0 mm 0.01 in0.3 mm
07:35 AM 72.5°F22.5°C -33.0°F-36.1°C 0% 3.0 mph SE4.8 kmh SE 5.0 mph8.0 kmh 30.13 in1020.3 mb 0.00 in0.0 mm 0.00 in0.0 mm 0.01 in0.3 mm
07:40 AM 72.6°F22.6°C -33.0°F-36.1°C 0% 3.0 mph SE4.8 kmh SE 6.0 mph9.7 kmh 30.13 in1020.3 mb 0.00 in0.0 mm 0.00 in0.0 mm 0.01 in0.3 mm
07:45 AM 72.6°F22.6°C -33.0°F-36.1°C 0% 3.0 mph SSE4.8 kmh SSE 6.0 mph9.7 kmh 30.13 in1020.3 mb 0.00 in0.0 mm 0.00 in0.0 mm 0.01 in0.3 mm
07:50 AM 72.7°F22.6°C -33.0°F-36.1°C 0% 3.0 mph SE4.8 kmh SE 7.0 mph11.3 kmh 30.13 in1020.3 mb 0.00 in0.0 mm 0.00 in0.0 mm 0.01 in0.3 mm
07:55 AM 72.7°F22.6°C -33.0°F-36.1°C 0% 4.0 mph SE6.4 kmh SE 7.0 mph11.3 kmh 30.14 in1020.7 mb 0.00 in0.0 mm 0.00 in0.0 mm 0.01 in0.3 mm
08:00 AM 72.8°F22.7°C -33.0°F-36.1°C 0% 4.0 mph SE6.4 kmh SE 7.0 mph11.3 kmh 30.14 in1020.7 mb 0.00 in0.0 mm 0.00 in0.0 mm 0.01 in0.3 mm
08:05 AM 72.8°F22.7°C -33.0°F-36.1°C 0% 4.0 mph SE6.4 kmh SE 7.0 mph11.3 kmh 30.14 in1020.7 mb 0.00 in0.0 mm 0.00 in0.0 mm 0.01 in0.3 mm
08:10 AM 72.8°F22.7°C -33.0°F-36.1°C 0% 4.0 mph SE6.4 kmh SE 7.0 mph11.3 kmh 30.14 in1020.7 mb 0.00 in0.0 mm 0.00 in0.0 mm 0.01 in0.3 mm
08:15 AM 72.8°F22.7°C -33.0°F-36.1°C 0% 4.0 mph SE6.4 kmh SE 9.0 mph14.5 kmh 30.14 in1020.7 mb 0.00 in0.0 mm 0.00 in0.0 mm 0.01 in0.3 mm
08:20 AM 73.0°F22.8°C -33.0°F-36.1°C 0% 4.0 mph SE6.4 kmh SE 9.0 mph14.5 kmh 30.14 in1020.7 mb 0.01 in0.3 mm 0.12 in3.0 mm 0.01 in0.3 mm
08:25 AM 73.0°F22.8°C -33.0°F-36.1°C 0% 3.0 mph SE4.8 kmh SE 7.0 mph11.3 kmh 30.14 in1020.7 mb 0.01 in0.3 mm 0.00 in0.0 mm 0.01 in0.3 mm
08:30 AM 73.1°F22.8°C -33.0°F-36.1°C 0% 3.0 mph SE4.8 kmh SE 7.0 mph11.3 kmh 30.14 in1020.7 mb 0.01 in0.3 mm 0.00 in0.0 mm 0.01 in0.3 mm
08:35 AM 73.2°F22.9°C -33.0°F-36.1°C 0% 2.0 mph SSE3.2 kmh SSE 5.0 mph8.0 kmh 30.14 in1020.7 mb 0.01 in0.3 mm 0.00 in0.0 mm 0.01 in0.3 mm
08:40 AM 73.3°F22.9°C -33.0°F-36.1°C 0% 2.0 mph SSE3.2 kmh SSE 4.0 mph6.4 kmh 30.14 in1020.7 mb 0.01 in0.3 mm 0.00 in0.0 mm 0.01 in0.3 mm
08:45 AM 73.4°F23.0°C -33.0°F-36.1°C 0% 2.0 mph SE3.2 kmh SE 4.0 mph6.4 kmh 30.14 in1020.7 mb 0.01 in0.3 mm 0.00 in0.0 mm 0.01 in0.3 mm
08:50 AM 73.6°F23.1°C -33.0°F-36.1°C 0% 3.0 mph SE4.8 kmh SE 6.0 mph9.7 kmh 30.15 in1021.0 mb 0.01 in0.3 mm 0.00 in0.0 mm 0.01 in0.3 mm
08:55 AM 73.7°F23.2°C -33.0°F-36.1°C 0% 3.0 mph SSE4.8 kmh SSE 6.0 mph9.7 kmh 30.15 in1021.0 mb 0.01 in0.3 mm 0.00 in0.0 mm 0.01 in0.3 mm
09:00 AM 73.8°F23.2°C -33.0°F-36.1°C 0% 3.0 mph SSE4.8 kmh SSE 5.0 mph8.0 kmh 30.15 in1021.0 mb 0.01 in0.3 mm 0.00 in0.0 mm 0.01 in0.3 mm
09:05 AM 73.9°F23.3°C -33.0°F-36.1°C 0% 3.0 mph SSE4.8 kmh SSE 7.0 mph11.3 kmh 30.15 in1021.0 mb 0.01 in0.3 mm 0.00 in0.0 mm 0.01 in0.3 mm
09:10 AM 73.9°F23.3°C -33.0°F-36.1°C 0% 4.0 mph SSE6.4 kmh SSE 7.0 mph11.3 kmh 30.15 in1021.0 mb 0.01 in0.3 mm 0.00 in0.0 mm 0.01 in0.3 mm
09:15 AM 74.0°F23.3°C -33.0°F-36.1°C 0% 3.0 mph SSE4.8 kmh SSE 7.0 mph11.3 kmh 30.15 in1021.0 mb 0.01 in0.3 mm 0.00 in0.0 mm 0.01 in0.3 mm
09:20 AM 74.2°F23.4°C -33.0°F-36.1°C 0% 3.0 mph SSE4.8 kmh SSE 7.0 mph11.3 kmh 30.15 in1021.0 mb 0.00 in0.0 mm 0.00 in0.0 mm 0.01 in0.3 mm
09:25 AM 74.2°F23.4°C -33.0°F-36.1°C 0% 3.0 mph SSE4.8 kmh SSE 7.0 mph11.3 kmh 30.16 in1021.3 mb 0.00 in0.0 mm 0.00 in0.0 mm 0.01 in0.3 mm
09:30 AM 74.3°F23.5°C -33.0°F-36.1°C 0% 3.0 mph SSE4.8 kmh SSE 6.0 mph9.7 kmh 30.16 in1021.3 mb 0.00 in0.0 mm 0.00 in0.0 mm 0.01 in0.3 mm
09:35 AM 74.5°F23.6°C -33.0°F-36.1°C 0% 3.0 mph SE4.8 kmh SE 6.0 mph9.7 kmh 30.16 in1021.3 mb 0.00 in0.0 mm 0.00 in0.0 mm 0.01 in0.3 mm
09:40 AM 74.5°F23.6°C -33.0°F-36.1°C 0% 3.0 mph SSE4.8 kmh SSE 7.0 mph11.3 kmh 30.16 in1021.3 mb 0.00 in0.0 mm 0.00 in0.0 mm 0.01 in0.3 mm
09:45 AM 74.7°F23.7°C -33.0°F-36.1°C 0% 3.0 mph SSE4.8 kmh SSE 7.0 mph11.3 kmh 30.16 in1021.3 mb 0.00 in0.0 mm 0.00 in0.0 mm 0.01 in0.3 mm
09:50 AM 74.8°F23.8°C -33.0°F-36.1°C 0% 4.0 mph SSE6.4 kmh SSE 7.0 mph11.3 kmh 30.16 in1021.3 mb 0.00 in0.0 mm 0.00 in0.0 mm 0.01 in0.3 mm
09:55 AM 74.9°F23.8°C -33.0°F-36.1°C 0% 4.0 mph SSE6.4 kmh SSE 9.0 mph14.5 kmh 30.16 in1021.3 mb 0.00 in0.0 mm 0.00 in0.0 mm 0.01 in0.3 mm
10:00 AM 74.9°F23.8°C -33.0°F-36.1°C 0% 5.0 mph SSE8.0 kmh SSE 10.0 mph16.1 kmh 30.16 in1021.3 mb 0.00 in0.0 mm 0.00 in0.0 mm 0.01 in0.3 mm
10:05 AM 74.9°F23.8°C -33.0°F-36.1°C 0% 6.0 mph SE9.7 kmh SE 11.0 mph17.7 kmh 30.17 in1021.7 mb 0.00 in0.0 mm 0.00 in0.0 mm 0.01 in0.3 mm
10:10 AM 75.1°F23.9°C -33.0°F-36.1°C 0% 6.0 mph SE9.7 kmh SE 11.0 mph17.7 kmh 30.17 in1021.7 mb 0.00 in0.0 mm 0.00 in0.0 mm 0.01 in0.3 mm
10:15 AM 75.3°F24.1°C -33.0°F-36.1°C 0% 5.0 mph SSE8.0 kmh SSE 9.0 mph14.5 kmh 30.17 in1021.7 mb 0.00 in0.0 mm 0.00 in0.0 mm 0.01 in0.3 mm
10:20 AM 75.5°F24.2°C -33.0°F-36.1°C 0% 5.0 mph SSE8.0 kmh SSE 9.0 mph14.5 kmh 30.17 in1021.7 mb 0.00 in0.0 mm 0.00 in0.0 mm 0.01 in0.3 mm
10:25 AM 75.7°F24.3°C -33.0°F-36.1°C 0% 4.0 mph SE6.4 kmh SE 8.0 mph12.9 kmh 30.17 in1021.7 mb 0.00 in0.0 mm 0.00 in0.0 mm 0.01 in0.3 mm
10:30 AM 76.6°F24.8°C -33.0°F-36.1°C 0% 4.0 mph SSE6.4 kmh SSE 7.0 mph11.3 kmh 30.17 in1021.7 mb 0.00 in0.0 mm 0.00 in0.0 mm 0.01 in0.3 mm
10:35 AM 77.0°F25.0°C -33.0°F-36.1°C 0% 4.0 mph SSE6.4 kmh SSE 11.0 mph17.7 kmh 30.17 in1021.7 mb 0.00 in0.0 mm 0.00 in0.0 mm 0.01 in0.3 mm
10:40 AM 77.1°F25.1°C -33.0°F-36.1°C 0% 6.0 mph SE9.7 kmh SE 12.0 mph19.3 kmh 30.17 in1021.7 mb 0.00 in0.0 mm 0.00 in0.0 mm 0.01 in0.3 mm
10:45 AM 77.3°F25.2°C -33.0°F-36.1°C 0% 6.0 mph SE9.7 kmh SE 12.0 mph19.3 kmh 30.17 in1021.7 mb 0.00 in0.0 mm 0.00 in0.0 mm 0.01 in0.3 mm
10:50 AM 77.5°F25.3°C -33.0°F-36.1°C 0% 5.0 mph SSE8.0 kmh SSE 11.0 mph17.7 kmh 30.17 in1021.7 mb 0.00 in0.0 mm 0.00 in0.0 mm 0.01 in0.3 mm
10:55 AM 77.6°F25.3°C -33.0°F-36.1°C 0% 5.0 mph SSE8.0 kmh SSE 11.0 mph17.7 kmh 30.17 in1021.7 mb 0.00 in0.0 mm 0.00 in0.0 mm 0.01 in0.3 mm
11:00 AM 77.8°F25.4°C -33.0°F-36.1°C 0% 5.0 mph SE8.0 kmh SE 10.0 mph16.1 kmh 30.17 in1021.7 mb 0.00 in0.0 mm 0.00 in0.0 mm 0.01 in0.3 mm
11:05 AM 78.5°F25.8°C -33.0°F-36.1°C 0% 4.0 mph SE6.4 kmh SE 7.0 mph11.3 kmh 30.17 in1021.7 mb 0.00 in0.0 mm 0.00 in0.0 mm 0.01 in0.3 mm
11:10 AM 79.0°F26.1°C -33.0°F-36.1°C 0% 4.0 mph S6.4 kmh S 12.0 mph19.3 kmh 30.17 in1021.7 mb 0.00 in0.0 mm 0.00 in0.0 mm 0.01 in0.3 mm
11:15 AM 79.8°F26.6°C -2.0°F-18.9°C 4% 5.0 mph S8.0 kmh S 12.0 mph19.3 kmh 30.17 in1021.7 mb 0.00 in0.0 mm 0.00 in0.0 mm 0.01 in0.3 mm
11:20 AM 80.3°F26.8°C 39.1°F3.9°C 23% 5.0 mph SE8.0 kmh SE 11.0 mph17.7 kmh 30.17 in1021.7 mb 0.00 in0.0 mm 0.00 in0.0 mm 0.01 in0.3 mm
11:25 AM 80.2°F26.8°C 49.3°F9.6°C 34% 6.0 mph SSE9.7 kmh SSE 12.0 mph19.3 kmh 30.17 in1021.7 mb 0.00 in0.0 mm 0.00 in0.0 mm 0.01 in0.3 mm
11:30 AM 80.3°F26.8°C 42.3°F5.7°C 26% 6.0 mph SSE9.7 kmh SSE 12.0 mph19.3 kmh 30.16 in1021.3 mb 0.00 in0.0 mm 0.00 in0.0 mm 0.01 in0.3 mm
11:35 AM 81.1°F27.3°C 52.4°F11.3°C 37% 6.0 mph SE9.7 kmh SE 11.0 mph17.7 kmh 30.16 in1021.3 mb 0.00 in0.0 mm 0.00 in0.0 mm 0.01 in0.3 mm
11:40 AM 81.8°F27.7°C 57.8°F14.3°C 44% 7.0 mph SE11.3 kmh SE 12.0 mph19.3 kmh 30.16 in1021.3 mb 0.00 in0.0 mm 0.00 in0.0 mm 0.01 in0.3 mm
11:45 AM 82.2°F27.9°C 60.0°F15.6°C 47% 7.0 mph SE11.3 kmh SE 12.0 mph19.3 kmh 30.15 in1021.0 mb 0.00 in0.0 mm 0.00 in0.0 mm 0.01 in0.3 mm
11:50 AM 82.5°F28.1°C 63.1°F17.3°C 52% 6.0 mph SSE9.7 kmh SSE 11.0 mph17.7 kmh 30.15 in1021.0 mb 0.00 in0.0 mm 0.00 in0.0 mm 0.01 in0.3 mm
11:55 AM 82.6°F28.1°C 64.8°F18.2°C 55% 5.0 mph SSE8.0 kmh SSE 10.0 mph16.1 kmh 30.15 in1021.0 mb 0.00 in0.0 mm 0.00 in0.0 mm 0.01 in0.3 mm
12:00 PM 82.9°F28.3°C 64.0°F17.8°C 53% 5.0 mph S8.0 kmh S 12.0 mph19.3 kmh 30.15 in1021.0 mb 0.00 in0.0 mm 0.00 in0.0 mm 0.01 in0.3 mm
12:05 PM 83.2°F28.4°C 67.9°F19.9°C 60% 6.0 mph S9.7 kmh S 12.0 mph19.3 kmh 30.15 in1021.0 mb 0.00 in0.0 mm 0.00 in0.0 mm 0.01 in0.3 mm
12:10 PM 83.6°F28.7°C 68.2°F20.1°C 60% 7.0 mph SSE11.3 kmh SSE 14.0 mph22.5 kmh 30.15 in1021.0 mb 0.00 in0.0 mm 0.00 in0.0 mm 0.01 in0.3 mm
12:15 PM 83.4°F28.6°C 68.5°F20.3°C 61% 6.0 mph SE9.7 kmh SE 14.0 mph22.5 kmh 30.15 in1021.0 mb 0.00 in0.0 mm 0.00 in0.0 mm 0.01 in0.3 mm
12:20 PM 83.2°F28.4°C 67.4°F19.7°C 59% 6.0 mph SE9.7 kmh SE 12.0 mph19.3 kmh 30.14 in1020.7 mb 0.00 in0.0 mm 0.00 in0.0 mm 0.01 in0.3 mm
12:25 PM 83.2°F28.4°C 68.8°F20.4°C 62% 5.0 mph SE8.0 kmh SE 11.0 mph17.7 kmh 30.14 in1020.7 mb 0.00 in0.0 mm 0.00 in0.0 mm 0.01 in0.3 mm
12:30 PM 83.6°F28.7°C 70.1°F21.2°C 64% 6.0 mph SSE9.7 kmh SSE 12.0 mph19.3 kmh 30.14 in1020.7 mb 0.00 in0.0 mm 0.00 in0.0 mm 0.01 in0.3 mm
12:35 PM 84.1°F28.9°C 70.6°F21.4°C 64% 6.0 mph SSE9.7 kmh SSE 12.0 mph19.3 kmh 30.13 in1020.3 mb 0.00 in0.0 mm 0.00 in0.0 mm 0.01 in0.3 mm
12:40 PM 84.7°F29.3°C 71.6°F22.0°C 65% 6.0 mph SE9.7 kmh SE 11.0 mph17.7 kmh 30.13 in1020.3 mb 0.00 in0.0 mm 0.00 in0.0 mm 0.01 in0.3 mm
12:45 PM 85.0°F29.4°C 71.9°F22.2°C 65% 8.0 mph SE12.9 kmh SE 15.0 mph24.1 kmh 30.13 in1020.3 mb 0.00 in0.0 mm 0.00 in0.0 mm 0.01 in0.3 mm
12:50 PM 84.8°F29.3°C 71.7°F22.1°C 65% 8.0 mph SE12.9 kmh SE 15.0 mph24.1 kmh 30.13 in1020.3 mb 0.00 in0.0 mm 0.00 in0.0 mm 0.01 in0.3 mm
12:55 PM 84.1°F28.9°C 71.5°F21.9°C 66% 7.0 mph SSE11.3 kmh SSE 13.0 mph20.9 kmh 30.12 in1020.0 mb 0.00 in0.0 mm 0.00 in0.0 mm 0.01 in0.3 mm
01:00 PM 83.8°F28.8°C 71.2°F21.8°C 66% 6.0 mph SSE9.7 kmh SSE 11.0 mph17.7 kmh 30.12 in1020.0 mb 0.00 in0.0 mm 0.00 in0.0 mm 0.01 in0.3 mm
01:05 PM 83.8°F28.8°C 71.2°F21.8°C 66% 7.0 mph S11.3 kmh S 12.0 mph19.3 kmh 30.12 in1020.0 mb 0.00 in0.0 mm 0.00 in0.0 mm 0.01 in0.3 mm
01:10 PM 84.5°F29.2°C 71.9°F22.2°C 66% 7.0 mph S11.3 kmh S 12.0 mph19.3 kmh 30.11 in1019.6 mb 0.00 in0.0 mm 0.00 in0.0 mm 0.01 in0.3 mm
01:15 PM 84.7°F29.3°C 71.6°F22.0°C 65% 7.0 mph S11.3 kmh S 13.0 mph20.9 kmh 30.12 in1020.0 mb 0.00 in0.0 mm 0.00 in0.0 mm 0.01 in0.3 mm
01:20 PM 84.8°F29.3°C 71.7°F22.1°C 65% 7.0 mph SSE11.3 kmh SSE 13.0 mph20.9 kmh 30.11 in1019.6 mb 0.00 in0.0 mm 0.00 in0.0 mm 0.01 in0.3 mm
01:25 PM 85.5°F29.7°C 72.4°F22.4°C 65% 7.0 mph SSE11.3 kmh SSE 13.0 mph20.9 kmh 30.10 in1019.3 mb 0.00 in0.0 mm 0.00 in0.0 mm 0.01 in0.3 mm
01:30 PM 86.0°F30.0°C 71.9°F22.2°C 63% 7.0 mph SSE11.3 kmh SSE 18.0 mph29.0 kmh 30.10 in1019.3 mb 0.00 in0.0 mm 0.00 in0.0 mm 0.01 in0.3 mm
01:35 PM 86.4°F30.2°C 72.3°F22.4°C 63% 6.0 mph SSE9.7 kmh SSE 18.0 mph29.0 kmh 30.10 in1019.3 mb 0.00 in0.0 mm 0.00 in0.0 mm 0.01 in0.3 mm
01:40 PM 86.6°F30.3°C 71.5°F21.9°C 61% 6.0 mph S9.7 kmh S 16.0 mph25.7 kmh 30.09 in1019.0 mb 0.00 in0.0 mm 0.00 in0.0 mm 0.01 in0.3 mm
01:45 PM 86.1°F30.1°C 71.1°F21.7°C 61% 7.0 mph S11.3 kmh S 16.0 mph25.7 kmh 30.10 in1019.3 mb 0.00 in0.0 mm 0.00 in0.0 mm 0.01 in0.3 mm
01:50 PM 86.0°F30.0°C 71.5°F21.9°C 62% 8.0 mph SSE12.9 kmh SSE 14.0 mph22.5 kmh 30.09 in1019.0 mb 0.00 in0.0 mm 0.00 in0.0 mm 0.01 in0.3 mm
01:55 PM 86.1°F30.1°C 70.6°F21.4°C 60% 8.0 mph SSE12.9 kmh SSE 14.0 mph22.5 kmh 30.09 in1019.0 mb 0.00 in0.0 mm 0.00 in0.0 mm 0.01 in0.3 mm
02:00 PM 86.8°F30.4°C 71.7°F22.1°C 61% 8.0 mph SSE12.9 kmh SSE 13.0 mph20.9 kmh 30.08 in1018.6 mb 0.00 in0.0 mm 0.00 in0.0 mm 0.01 in0.3 mm
02:05 PM 87.4°F30.8°C 70.8°F21.6°C 58% 7.0 mph SE11.3 kmh SE 14.0 mph22.5 kmh 30.08 in1018.6 mb 0.00 in0.0 mm 0.00 in0.0 mm 0.01 in0.3 mm
02:10 PM 87.4°F30.8°C 71.3°F21.8°C 59% 8.0 mph SE12.9 kmh SE 14.0 mph22.5 kmh 30.08 in1018.6 mb 0.00 in0.0 mm 0.00 in0.0 mm 0.01 in0.3 mm
02:15 PM 87.7°F30.9°C 71.6°F22.0°C 59% 8.0 mph SE12.9 kmh SE 12.0 mph19.3 kmh 30.08 in1018.6 mb 0.00 in0.0 mm 0.00 in0.0 mm 0.01 in0.3 mm
02:20 PM 88.2°F31.2°C 71.0°F21.7°C 57% 8.0 mph SSE12.9 kmh SSE 14.0 mph22.5 kmh 30.07 in1018.3 mb 0.00 in0.0 mm 0.00 in0.0 mm 0.01 in0.3 mm
02:25 PM 88.4°F31.3°C 71.2°F21.8°C 57% 8.0 mph SSE12.9 kmh SSE 14.0 mph22.5 kmh 30.07 in1018.3 mb 0.00 in0.0 mm 0.00 in0.0 mm 0.01 in0.3 mm
02:30 PM 88.7°F31.5°C 71.5°F21.9°C 57% 7.0 mph S11.3 kmh S 14.0 mph22.5 kmh 30.07 in1018.3 mb 0.00 in0.0 mm 0.00 in0.0 mm 0.01 in0.3 mm
02:35 PM 88.6°F31.4°C 71.4°F21.9°C 57% 6.0 mph S9.7 kmh S 13.0 mph20.9 kmh 30.06 in1017.9 mb 0.00 in0.0 mm 0.00 in0.0 mm 0.01 in0.3 mm
02:40 PM 88.2°F31.2°C 71.0°F21.7°C 57% 7.0 mph SSE11.3 kmh SSE 15.0 mph24.1 kmh 30.06 in1017.9 mb 0.00 in0.0 mm 0.00 in0.0 mm 0.01 in0.3 mm
02:45 PM 88.7°F31.5°C 71.0°F21.7°C 56% 7.0 mph SE11.3 kmh SE 16.0 mph25.7 kmh 30.06 in1017.9 mb 0.00 in0.0 mm 0.00 in0.0 mm 0.01 in0.3 mm
02:50 PM 89.3°F31.8°C 71.5°F21.9°C 56% 7.0 mph SSE11.3 kmh SSE 16.0 mph25.7 kmh 30.06 in1017.9 mb 0.00 in0.0 mm 0.00 in0.0 mm 0.01 in0.3 mm
02:55 PM 90.2°F32.3°C 71.3°F21.8°C 54% 6.0 mph S9.7 kmh S 13.0 mph20.9 kmh 30.05 in1017.6 mb 0.00 in0.0 mm 0.00 in0.0 mm 0.01 in0.3 mm
03:00 PM 89.9°F32.2°C 70.5°F21.4°C 53% 6.0 mph SSE9.7 kmh SSE 14.0 mph22.5 kmh 30.05 in1017.6 mb 0.00 in0.0 mm 0.00 in0.0 mm 0.01 in0.3 mm
03:05 PM 89.0°F31.7°C 70.2°F21.2°C 54% 7.0 mph SSE11.3 kmh SSE 14.0 mph22.5 kmh 30.05 in1017.6 mb 0.00 in0.0 mm 0.00 in0.0 mm 0.01 in0.3 mm
03:10 PM 88.5°F31.4°C 70.8°F21.6°C 56% 7.0 mph SSE11.3 kmh SSE 14.0 mph22.5 kmh 30.05 in1017.6 mb 0.00 in0.0 mm 0.00 in0.0 mm 0.01 in0.3 mm
03:15 PM 89.1°F31.7°C 70.3°F21.3°C 54% 7.0 mph SE11.3 kmh SE 14.0 mph22.5 kmh 30.05 in1017.6 mb 0.00 in0.0 mm 0.00 in0.0 mm 0.01 in0.3 mm
03:20 PM 89.7°F32.1°C 70.8°F21.6°C 54% 7.0 mph SE11.3 kmh SE 12.0 mph19.3 kmh 30.05 in1017.6 mb 0.00 in0.0 mm 0.00 in0.0 mm 0.01 in0.3 mm
03:25 PM 90.4°F32.4°C 72.0°F22.2°C 55% 6.0 mph SSE9.7 kmh SSE 11.0 mph17.7 kmh 30.05 in1017.6 mb 0.00 in0.0 mm 0.00 in0.0 mm 0.01 in0.3 mm
03:30 PM 91.1°F32.8°C 71.6°F22.0°C 53% 6.0 mph S9.7 kmh S 11.0 mph17.7 kmh 30.05 in1017.6 mb 0.00 in0.0 mm 0.00 in0.0 mm 0.01 in0.3 mm
03:35 PM 91.0°F32.8°C 71.5°F21.9°C 53% 6.0 mph S9.7 kmh S 10.0 mph16.1 kmh 30.05 in1017.6 mb 0.00 in0.0 mm 0.00 in0.0 mm 0.01 in0.3 mm
03:40 PM 90.2°F32.3°C 70.8°F21.6°C 53% 6.0 mph S9.7 kmh S 12.0 mph19.3 kmh 30.05 in1017.6 mb 0.00 in0.0 mm 0.00 in0.0 mm 0.01 in0.3 mm
03:45 PM 89.4°F31.9°C 71.1°F21.7°C 55% 6.0 mph S9.7 kmh S 12.0 mph19.3 kmh 30.04 in1017.3 mb 0.00 in0.0 mm 0.00 in0.0 mm 0.01 in0.3 mm
03:50 PM 89.2°F31.8°C 70.9°F21.6°C 55% 6.0 mph S9.7 kmh S 10.0 mph16.1 kmh 30.04 in1017.3 mb 0.00 in0.0 mm 0.00 in0.0 mm 0.01 in0.3 mm
03:55 PM 89.0°F31.7°C 70.7°F21.5°C 55% 5.0 mph S8.0 kmh S 10.0 mph16.1 kmh 30.04 in1017.3 mb 0.00 in0.0 mm 0.00 in0.0 mm 0.01 in0.3 mm
04:00 PM 88.4°F31.3°C 70.7°F21.5°C 56% 4.0 mph SSE6.4 kmh SSE 9.0 mph14.5 kmh 30.04 in1017.3 mb 0.00 in0.0 mm 0.00 in0.0 mm 0.01 in0.3 mm
04:05 PM 88.6°F31.4°C 71.4°F21.9°C 57% 4.0 mph SE6.4 kmh SE 9.0 mph14.5 kmh 30.04 in1017.3 mb 0.00 in0.0 mm 0.00 in0.0 mm 0.01 in0.3 mm
04:10 PM 89.3°F31.8°C 71.0°F21.7°C 55% 5.0 mph SE8.0 kmh SE 11.0 mph17.7 kmh 30.03 in1016.9 mb 0.00 in0.0 mm 0.00 in0.0 mm 0.01 in0.3 mm
04:15 PM 89.9°F32.2°C 71.6°F22.0°C 55% 6.0 mph SE9.7 kmh SE 11.0 mph17.7 kmh 30.03 in1016.9 mb 0.00 in0.0 mm 0.00 in0.0 mm 0.01 in0.3 mm
04:20 PM 90.7°F32.6°C 70.7°F21.5°C 52% 5.0 mph SSE8.0 kmh SSE 12.0 mph19.3 kmh 30.03 in1016.9 mb 0.00 in0.0 mm 0.00 in0.0 mm 0.01 in0.3 mm
04:25 PM 91.1°F32.8°C 71.0°F21.7°C 52% 6.0 mph SSE9.7 kmh SSE 12.0 mph19.3 kmh 30.03 in1016.9 mb 0.00 in0.0 mm 0.00 in0.0 mm 0.01 in0.3 mm
04:30 PM 91.7°F33.2°C 71.6°F22.0°C 52% 5.0 mph S8.0 kmh S 9.0 mph14.5 kmh 30.03 in1016.9 mb 0.00 in0.0 mm 0.00 in0.0 mm 0.01 in0.3 mm
04:35 PM 92.0°F33.3°C 70.1°F21.2°C 49% 5.0 mph S8.0 kmh S 12.0 mph19.3 kmh 30.03 in1016.9 mb 0.00 in0.0 mm 0.00 in0.0 mm 0.01 in0.3 mm
04:40 PM 92.1°F33.4°C 70.8°F21.6°C 50% 5.0 mph S8.0 kmh S 12.0 mph19.3 kmh 30.03 in1016.9 mb 0.00 in0.0 mm 0.00 in0.0 mm 0.01 in0.3 mm
04:45 PM 92.4°F33.6°C 71.1°F21.7°C 50% 5.0 mph S8.0 kmh S 10.0 mph16.1 kmh 30.03 in1016.9 mb 0.00 in0.0 mm 0.00 in0.0 mm 0.01 in0.3 mm
04:50 PM 92.3°F33.5°C 70.4°F21.3°C 49% 5.0 mph S8.0 kmh S 10.0 mph16.1 kmh 30.02 in1016.6 mb 0.00 in0.0 mm 0.00 in0.0 mm 0.01 in0.3 mm
04:55 PM 91.4°F33.0°C 69.6°F20.9°C 49% 5.0 mph S8.0 kmh S 11.0 mph17.7 kmh 30.03 in1016.9 mb 0.00 in0.0 mm 0.00 in0.0 mm 0.01 in0.3 mm
05:00 PM 90.4°F32.4°C 69.8°F21.0°C 51% 5.0 mph S8.0 kmh S 11.0 mph17.7 kmh 30.03 in1016.9 mb 0.00 in0.0 mm 0.00 in0.0 mm 0.01 in0.3 mm
05:05 PM 89.7°F32.1°C 69.2°F20.7°C 51% 5.0 mph SSE8.0 kmh SSE 10.0 mph16.1 kmh 30.02 in1016.6 mb 0.00 in0.0 mm 0.00 in0.0 mm 0.01 in0.3 mm
05:10 PM 89.9°F32.2°C 69.9°F21.1°C 52% 4.0 mph SSE6.4 kmh SSE 8.0 mph12.9 kmh 30.02 in1016.6 mb 0.00 in0.0 mm 0.00 in0.0 mm 0.01 in0.3 mm
05:15 PM 90.6°F32.6°C 69.4°F20.8°C 50% 4.0 mph SSE6.4 kmh SSE 8.0 mph12.9 kmh 30.02 in1016.6 mb 0.00 in0.0 mm 0.00 in0.0 mm 0.01 in0.3 mm
05:20 PM 90.9°F32.7°C 68.5°F20.3°C 48% 5.0 mph SSE8.0 kmh SSE 13.0 mph20.9 kmh 30.02 in1016.6 mb 0.00 in0.0 mm 0.00 in0.0 mm 0.01 in0.3 mm
05:25 PM 91.0°F32.8°C 69.2°F20.7°C 49% 6.0 mph S9.7 kmh S 13.0 mph20.9 kmh 30.02 in1016.6 mb 0.00 in0.0 mm 0.00 in0.0 mm 0.01 in0.3 mm
05:30 PM 91.3°F32.9°C 69.5°F20.8°C 49% 5.0 mph S8.0 kmh S 11.0 mph17.7 kmh 30.02 in1016.6 mb 0.00 in0.0 mm 0.00 in0.0 mm 0.01 in0.3 mm
05:35 PM 91.5°F33.1°C 69.0°F20.6°C 48% 5.0 mph S8.0 kmh S 12.0 mph19.3 kmh 30.02 in1016.6 mb 0.00 in0.0 mm 0.00 in0.0 mm 0.01 in0.3 mm
05:40 PM 91.8°F33.2°C 69.3°F20.7°C 48% 5.0 mph S8.0 kmh S 12.0 mph19.3 kmh 30.02 in1016.6 mb 0.00 in0.0 mm 0.00 in0.0 mm 0.01 in0.3 mm
05:45 PM 91.6°F33.1°C 67.9°F19.9°C 46% 5.0 mph SSE8.0 kmh SSE 10.0 mph16.1 kmh 30.02 in1016.6 mb 0.00 in0.0 mm 0.00 in0.0 mm 0.01 in0.3 mm
05:50 PM 91.2°F32.9°C 68.8°F20.4°C 48% 6.0 mph SSE9.7 kmh SSE 10.0 mph16.1 kmh 30.03 in1016.9 mb 0.00 in0.0 mm 0.00 in0.0 mm 0.01 in0.3 mm
05:55 PM 91.2°F32.9°C 69.4°F20.8°C 49% 5.0 mph SSE8.0 kmh SSE 10.0 mph16.1 kmh 30.03 in1016.9 mb 0.00 in0.0 mm 0.00 in0.0 mm 0.01 in0.3 mm
06:00 PM 91.0°F32.8°C 69.2°F20.7°C 49% 5.0 mph SSE8.0 kmh SSE 10.0 mph16.1 kmh 30.03 in1016.9 mb 0.00 in0.0 mm 0.00 in0.0 mm 0.01 in0.3 mm
06:05 PM 91.0°F32.8°C 69.2°F20.7°C 49% 5.0 mph SSE8.0 kmh SSE 10.0 mph16.1 kmh 30.03 in1016.9 mb 0.00 in0.0 mm 0.00 in0.0 mm 0.01 in0.3 mm
06:10 PM 90.8°F32.7°C 68.4°F20.2°C 48% 4.0 mph S6.4 kmh S 10.0 mph16.1 kmh 30.03 in1016.9 mb 0.00 in0.0 mm 0.00 in0.0 mm 0.01 in0.3 mm
06:15 PM 90.1°F32.3°C 68.4°F20.2°C 49% 4.0 mph S6.4 kmh S 8.0 mph12.9 kmh 30.03 in1016.9 mb 0.00 in0.0 mm 0.00 in0.0 mm 0.01 in0.3 mm
06:20 PM 89.0°F31.7°C 68.5°F20.3°C 51% 4.0 mph S6.4 kmh S 8.0 mph12.9 kmh 30.03 in1016.9 mb 0.00 in0.0 mm 0.00 in0.0 mm 0.01 in0.3 mm
06:25 PM 88.4°F31.3°C 68.5°F20.3°C 52% 4.0 mph S6.4 kmh S 8.0 mph12.9 kmh 30.03 in1016.9 mb 0.00 in0.0 mm 0.00 in0.0 mm 0.01 in0.3 mm
06:30 PM 88.2°F31.2°C 68.9°F20.5°C 53% 3.0 mph S4.8 kmh S 7.0 mph11.3 kmh 30.03 in1016.9 mb 0.00 in0.0 mm 0.00 in0.0 mm 0.01 in0.3 mm
06:35 PM 87.8°F31.0°C 68.5°F20.3°C 53% 3.0 mph S4.8 kmh S 6.0 mph9.7 kmh 30.03 in1016.9 mb 0.00 in0.0 mm 0.00 in0.0 mm 0.01 in0.3 mm
06:40 PM 87.3°F30.7°C 68.6°F20.3°C 54% 3.0 mph S4.8 kmh S 6.0 mph9.7 kmh 30.03 in1016.9 mb 0.00 in0.0 mm 0.00 in0.0 mm 0.01 in0.3 mm
06:45 PM 86.8°F30.4°C 68.2°F20.1°C 54% 3.0 mph S4.8 kmh S 6.0 mph9.7 kmh 30.03 in1016.9 mb 0.00 in0.0 mm 0.00 in0.0 mm 0.01 in0.3 mm
06:50 PM 86.4°F30.2°C 68.3°F20.2°C 55% 3.0 mph S4.8 kmh S 5.0 mph8.0 kmh 30.04 in1017.3 mb 0.00 in0.0 mm 0.00 in0.0 mm 0.01 in0.3 mm
06:55 PM 86.1°F30.1°C 68.6°F20.3°C 56% 2.0 mph S3.2 kmh S 5.0 mph8.0 kmh 30.04 in1017.3 mb 0.00 in0.0 mm 0.00 in0.0 mm 0.01 in0.3 mm
07:00 PM 85.6°F29.8°C 68.1°F20.1°C 56% 2.0 mph S3.2 kmh S 6.0 mph9.7 kmh 30.03 in1016.9 mb 0.00 in0.0 mm 0.00 in0.0 mm 0.01 in0.3 mm
07:05 PM 85.2°F29.6°C 68.2°F20.1°C 57% 2.0 mph S3.2 kmh S 6.0 mph9.7 kmh 30.04 in1017.3 mb 0.00 in0.0 mm 0.00 in0.0 mm 0.01 in0.3 mm
07:10 PM 84.8°F29.3°C 68.4°F20.2°C 58% 2.0 mph S3.2 kmh S 4.0 mph6.4 kmh 30.04 in1017.3 mb 0.00 in0.0 mm 0.00 in0.0 mm 0.01 in0.3 mm
07:15 PM 84.4°F29.1°C 68.5°F20.3°C 59% 1.0 mph S1.6 kmh S 4.0 mph6.4 kmh 30.04 in1017.3 mb 0.00 in0.0 mm 0.00 in0.0 mm 0.01 in0.3 mm
07:20 PM 83.8°F28.8°C 70.3°F21.3°C 64% 2.0 mph WSW3.2 kmh WSW 8.0 mph12.9 kmh 30.04 in1017.3 mb 0.00 in0.0 mm 0.00 in0.0 mm 0.01 in0.3 mm
07:25 PM 83.2°F28.4°C 70.7°F21.5°C 66% 3.0 mph WSW4.8 kmh WSW 8.0 mph12.9 kmh 30.04 in1017.3 mb 0.00 in0.0 mm 0.00 in0.0 mm 0.01 in0.3 mm
07:30 PM 82.7°F28.2°C 70.6°F21.4°C 67% 2.0 mph W3.2 kmh W 7.0 mph11.3 kmh 30.05 in1017.6 mb 0.00 in0.0 mm 0.00 in0.0 mm 0.01 in0.3 mm
07:35 PM 82.2°F27.9°C 70.6°F21.4°C 68% 3.0 mph WSW4.8 kmh WSW 7.0 mph11.3 kmh 30.05 in1017.6 mb 0.00 in0.0 mm 0.00 in0.0 mm 0.01 in0.3 mm
07:40 PM 81.8°F27.7°C 70.2°F21.2°C 68% 3.0 mph WSW4.8 kmh WSW 6.0 mph9.7 kmh 30.05 in1017.6 mb 0.00 in0.0 mm 0.00 in0.0 mm 0.01 in0.3 mm
07:45 PM 81.5°F27.5°C 70.3°F21.3°C 69% 2.0 mph WSW3.2 kmh WSW 6.0 mph9.7 kmh 30.05 in1017.6 mb 0.00 in0.0 mm 0.00 in0.0 mm 0.01 in0.3 mm
07:50 PM 81.1°F27.3°C 70.0°F21.1°C 69% 2.0 mph W3.2 kmh W 6.0 mph9.7 kmh 30.05 in1017.6 mb 0.00 in0.0 mm 0.00 in0.0 mm 0.01 in0.3 mm
07:55 PM 80.9°F27.2°C 69.8°F21.0°C 69% 2.0 mph W3.2 kmh W 5.0 mph8.0 kmh 30.05 in1017.6 mb 0.00 in0.0 mm 0.00 in0.0 mm 0.01 in0.3 mm
08:00 PM 80.6°F27.0°C 69.5°F20.8°C 69% 2.0 mph W3.2 kmh W 5.0 mph8.0 kmh 30.05 in1017.6 mb 0.00 in0.0 mm 0.00 in0.0 mm 0.01 in0.3 mm
08:05 PM 80.5°F26.9°C 69.4°F20.8°C 69% 2.0 mph W3.2 kmh W 4.0 mph6.4 kmh 30.05 in1017.6 mb 0.00 in0.0 mm 0.00 in0.0 mm 0.01 in0.3 mm
08:10 PM 80.3°F26.8°C 69.2°F20.7°C 69% 1.0 mph WSW1.6 kmh WSW 2.0 mph3.2 kmh 30.05 in1017.6 mb 0.00 in0.0 mm 0.00 in0.0 mm 0.01 in0.3 mm
08:15 PM 80.1°F26.7°C 68.6°F20.3°C 68% 1.0 mph WSW1.6 kmh WSW 3.0 mph4.8 kmh 30.06 in1017.9 mb 0.00 in0.0 mm 0.00 in0.0 mm 0.01 in0.3 mm
08:20 PM 79.9°F26.6°C 68.4°F20.2°C 68% 1.0 mph WSW1.6 kmh WSW 3.0 mph4.8 kmh 30.06 in1017.9 mb 0.00 in0.0 mm 0.00 in0.0 mm 0.01 in0.3 mm
08:25 PM 79.7°F26.5°C 67.8°F19.9°C 67% 1.0 mph WSW1.6 kmh WSW 3.0 mph4.8 kmh 30.06 in1017.9 mb 0.00 in0.0 mm 0.00 in0.0 mm 0.01 in0.3 mm
08:30 PM 79.6°F26.4°C 67.7°F19.8°C 67% Calm Calm 2.0 mph3.2 kmh 30.06 in1017.9 mb 0.00 in0.0 mm 0.00 in0.0 mm 0.01 in0.3 mm
08:35 PM 79.5°F26.4°C 67.1°F19.5°C 66% Calm Calm 2.0 mph3.2 kmh 30.06 in1017.9 mb 0.00 in0.0 mm 0.00 in0.0 mm 0.01 in0.3 mm
08:40 PM 79.3°F26.3°C 67.0°F19.4°C 66% Calm Calm 2.0 mph3.2 kmh 30.06 in1017.9 mb 0.00 in0.0 mm 0.00 in0.0 mm 0.01 in0.3 mm
08:45 PM 79.2°F26.2°C 66.4°F19.1°C 65% 1.0 mph WSW1.6 kmh WSW 2.0 mph3.2 kmh 30.07 in1018.3 mb 0.00 in0.0 mm 0.00 in0.0 mm 0.01 in0.3 mm
08:50 PM 79.1°F26.2°C 66.3°F19.1°C 65% 1.0 mph WSW1.6 kmh WSW 4.0 mph6.4 kmh 30.06 in1017.9 mb 0.00 in0.0 mm 0.00 in0.0 mm 0.01 in0.3 mm
08:55 PM 79.1°F26.2°C 65.9°F18.8°C 64% 2.0 mph SW3.2 kmh SW 6.0 mph9.7 kmh 30.06 in1017.9 mb 0.00 in0.0 mm 0.00 in0.0 mm 0.01 in0.3 mm
09:00 PM 79.0°F26.1°C 65.3°F18.5°C 63% 2.0 mph SW3.2 kmh SW 6.0 mph9.7 kmh 30.07 in1018.3 mb 0.00 in0.0 mm 0.00 in0.0 mm 0.01 in0.3 mm
09:05 PM 78.9°F26.1°C 65.2°F18.4°C 63% 1.0 mph WSW1.6 kmh WSW 4.0 mph6.4 kmh 30.07 in1018.3 mb 0.00 in0.0 mm 0.00 in0.0 mm 0.01 in0.3 mm
09:10 PM 78.9°F26.1°C 65.2°F18.4°C 63% 1.0 mph WSW1.6 kmh WSW 5.0 mph8.0 kmh 30.07 in1018.3 mb 0.00 in0.0 mm 0.00 in0.0 mm 0.01 in0.3 mm
09:15 PM 78.8°F26.0°C 64.7°F18.2°C 62% 2.0 mph WSW3.2 kmh WSW 8.0 mph12.9 kmh 30.07 in1018.3 mb 0.00 in0.0 mm 0.00 in0.0 mm 0.01 in0.3 mm
09:20 PM 78.7°F25.9°C 64.6°F18.1°C 62% 2.0 mph WSW3.2 kmh WSW 8.0 mph12.9 kmh 30.07 in1018.3 mb 0.00 in0.0 mm 0.00 in0.0 mm 0.01 in0.3 mm
09:25 PM 78.6°F25.9°C 64.5°F18.1°C 62% 2.0 mph SW3.2 kmh SW 5.0 mph8.0 kmh 30.07 in1018.3 mb 0.00 in0.0 mm 0.00 in0.0 mm 0.01 in0.3 mm
09:30 PM 78.5°F25.8°C 63.9°F17.7°C 61% 1.0 mph WSW1.6 kmh WSW 3.0 mph4.8 kmh 30.07 in1018.3 mb 0.00 in0.0 mm 0.00 in0.0 mm 0.01 in0.3 mm
09:35 PM 78.4°F25.8°C 63.4°F17.4°C 60% 1.0 mph WSW1.6 kmh WSW 4.0 mph6.4 kmh 30.07 in1018.3 mb 0.00 in0.0 mm 0.00 in0.0 mm 0.01 in0.3 mm
09:40 PM 78.4°F25.8°C 63.4°F17.4°C 60% 1.0 mph WSW1.6 kmh WSW 4.0 mph6.4 kmh 30.07 in1018.3 mb 0.00 in0.0 mm 0.00 in0.0 mm 0.01 in0.3 mm
09:45 PM 78.3°F25.7°C 63.3°F17.4°C 60% 1.0 mph WSW1.6 kmh WSW 4.0 mph6.4 kmh 30.08 in1018.6 mb 0.00 in0.0 mm 0.00 in0.0 mm 0.01 in0.3 mm
09:50 PM 78.2°F25.7°C 63.2°F17.3°C 60% 1.0 mph WSW1.6 kmh WSW 4.0 mph6.4 kmh 30.07 in1018.3 mb 0.00 in0.0 mm 0.00 in0.0 mm 0.01 in0.3 mm
09:55 PM 78.0°F25.6°C 63.0°F17.2°C 60% 1.0 mph SW1.6 kmh SW 5.0 mph8.0 kmh 30.07 in1018.3 mb 0.00 in0.0 mm 0.00 in0.0 mm 0.01 in0.3 mm
10:00 PM 77.8°F25.4°C 62.3°F16.8°C 59% 1.0 mph SW1.6 kmh SW 5.0 mph8.0 kmh 30.07 in1018.3 mb 0.00 in0.0 mm 0.00 in0.0 mm 0.01 in0.3 mm
10:05 PM 77.6°F25.3°C 61.7°F16.5°C 58% 1.0 mph SW1.6 kmh SW 4.0 mph6.4 kmh 30.08 in1018.6 mb 0.00 in0.0 mm 0.00 in0.0 mm 0.01 in0.3 mm
10:10 PM 77.5°F25.3°C 61.1°F16.2°C 57% 1.0 mph SW1.6 kmh SW 4.0 mph6.4 kmh 30.08 in1018.6 mb 0.00 in0.0 mm 0.00 in0.0 mm 0.01 in0.3 mm
10:15 PM 77.3°F25.2°C 60.9°F16.1°C 57% 1.0 mph SW1.6 kmh SW 2.0 mph3.2 kmh 30.08 in1018.6 mb 0.00 in0.0 mm 0.00 in0.0 mm 0.01 in0.3 mm
10:20 PM 77.0°F25.0°C 60.1°F15.6°C 56% Calm Calm 2.0 mph3.2 kmh 30.08 in1018.6 mb 0.00 in0.0 mm 0.00 in0.0 mm 0.01 in0.3 mm
10:25 PM 76.8°F24.9°C 58.4°F14.7°C 53% 1.0 mph SW1.6 kmh SW 2.0 mph3.2 kmh 30.08 in1018.6 mb 0.00 in0.0 mm 0.00 in0.0 mm 0.01 in0.3 mm
10:30 PM 76.5°F24.7°C 58.1°F14.5°C 53% 1.0 mph SW1.6 kmh SW 2.0 mph3.2 kmh 30.08 in1018.6 mb 0.00 in0.0 mm 0.00 in0.0 mm 0.01 in0.3 mm
10:35 PM 76.2°F24.6°C 56.2°F13.4°C 50% 1.0 mph SW1.6 kmh SW 3.0 mph4.8 kmh 30.08 in1018.6 mb 0.00 in0.0 mm 0.00 in0.0 mm 0.01 in0.3 mm
10:40 PM 75.9°F24.4°C 55.4°F13.0°C 49% 1.0 mph SW1.6 kmh SW 3.0 mph4.8 kmh 30.08 in1018.6 mb 0.00 in0.0 mm 0.00 in0.0 mm 0.01 in0.3 mm
10:45 PM 75.6°F24.2°C 54.5°F12.5°C 48% 2.0 mph SW3.2 kmh SW 3.0 mph4.8 kmh 30.08 in1018.6 mb 0.00 in0.0 mm 0.00 in0.0 mm 0.01 in0.3 mm
10:50 PM 75.4°F24.1°C 53.2°F11.8°C 46% 1.0 mph SW1.6 kmh SW 3.0 mph4.8 kmh 30.08 in1018.6 mb 0.00 in0.0 mm 0.00 in0.0 mm 0.01 in0.3 mm
10:55 PM 75.2°F24.0°C 53.6°F12.0°C 47% 1.0 mph SW1.6 kmh SW 2.0 mph3.2 kmh 30.08 in1018.6 mb 0.00 in0.0 mm 0.00 in0.0 mm 0.01 in0.3 mm
11:00 PM 74.9°F23.8°C 52.1°F11.2°C 45% Calm Calm 1.0 mph1.6 kmh 30.08 in1018.6 mb 0.00 in0.0 mm 0.00 in0.0 mm 0.01 in0.3 mm
11:05 PM 74.7°F23.7°C 51.3°F10.7°C 44% Calm Calm -- 30.09 in1019.0 mb 0.00 in0.0 mm 0.00 in0.0 mm 0.01 in0.3 mm
11:10 PM 74.4°F23.6°C 49.8°F9.9°C 42% Calm Calm -- 30.09 in1019.0 mb 0.00 in0.0 mm 0.00 in0.0 mm 0.01 in0.3 mm
11:15 PM 74.1°F23.4°C 48.2°F9.0°C 40% Calm Calm -- 30.09 in1019.0 mb 0.00 in0.0 mm 0.00 in0.0 mm 0.01 in0.3 mm
11:20 PM 73.8°F23.2°C 46.6°F8.1°C 38% Calm Calm 1.0 mph1.6 kmh 30.09 in1019.0 mb 0.00 in0.0 mm 0.00 in0.0 mm 0.01 in0.3 mm
11:25 PM 73.4°F23.0°C 45.5°F7.5°C 37% Calm Calm 1.0 mph1.6 kmh 30.09 in1019.0 mb 0.00 in0.0 mm 0.00 in0.0 mm 0.01 in0.3 mm
11:30 PM 73.1°F22.8°C 42.3°F5.7°C 33% Calm Calm -- 30.09 in1019.0 mb 0.00 in0.0 mm 0.00 in0.0 mm 0.01 in0.3 mm
11:35 PM 72.8°F22.7°C 33.9°F1.1°C 24% Calm Calm -- 30.09 in1019.0 mb 0.00 in0.0 mm 0.00 in0.0 mm 0.01 in0.3 mm
11:40 PM 72.6°F22.6°C 23.8°F-4.6°C 16% Calm Calm -- 30.09 in1019.0 mb 0.00 in0.0 mm 0.00 in0.0 mm 0.01 in0.3 mm
11:45 PM 72.5°F22.5°C 18.8°F-7.3°C 13% Calm Calm -- 30.09 in1019.0 mb 0.00 in0.0 mm 0.00 in0.0 mm 0.01 in0.3 mm
11:50 PM 72.4°F22.4°C 4.7°F-15.2°C 7% Calm Calm -- 30.09 in1019.0 mb 0.00 in0.0 mm 0.00 in0.0 mm 0.01 in0.3 mm
11:55 PM 72.4°F22.4°C -13.0°F-25.0°C 3% Calm Calm -- 30.09 in1019.0 mb 0.00 in0.0 mm 0.00 in0.0 mm 0.01 in0.3 mm